Time;durP1;ratioP1;P1;durP2;ratioP2;P2;SDS_P1;SDS_P2;PMS_P1;PMS_P2;Temp;Humidity;BMP_temperature;BMP_pressure;BME280_temperature;BME280_humidity;BME280_pressure;Samples;Min_cycle;Max_cycle;Signal;HPM_P1;HPM_P2
2022/12/09 00:01:02;;;;;;;425.13;28.92;;;;;;;7.20;100.00;93558.81;5080747;28;20036;-89
2022/12/09 00:03:27;;;;;;;324.48;23.50;;;;;;;7.17;100.00;93555.94;5080586;28;20031;-89
2022/12/09 00:05:53;;;;;;;67.25;15.50;;;;;;;7.51;100.00;93547.47;5080450;28;20103;-89
2022/12/09 00:08:18;;;;;;;59.30;15.35;;;;;;;7.61;100.00;93557.09;5080423;28;20028;-88
2022/12/09 00:10:44;;;;;;;57.55;13.30;;;;;;;7.71;100.00;93556.25;5080414;28;20032;-89
2022/12/09 00:13:09;;;;;;;21.38;10.50;;;;;;;7.76;100.00;93551.00;5079408;28;20032;-88
2022/12/09 00:15:39;;;;;;;22.40;11.02;;;;;;;7.89;100.00;93547.00;5079126;28;20369;-89
2022/12/09 00:18:04;;;;;;;35.10;12.85;;;;;;;7.83;100.00;93550.72;5079054;28;20028;-89
2022/12/09 00:20:30;;;;;;;203.50;17.70;;;;;;;7.62;100.00;93543.78;5080334;28;20036;-88
2022/12/09 00:22:56;;;;;;;71.18;13.65;;;;;;;7.66;100.00;93548.44;5078820;28;20024;-89
2022/12/09 00:25:21;;;;;;;57.05;13.75;;;;;;;7.66;100.00;93546.63;5078900;28;20078;-88
2022/12/09 00:27:46;;;;;;;144.88;16.90;;;;;;;7.31;100.00;93553.53;5078826;28;20082;-89
2022/12/09 00:30:12;;;;;;;26.90;13.60;;;;;;;7.35;100.00;93541.56;5080127;28;20067;-88
2022/12/09 00:32:37;;;;;;;589.92;36.70;;;;;;;6.51;100.00;93545.38;5078728;28;20051;-89
2022/12/09 00:35:03;;;;;;;49.83;14.77;;;;;;;6.72;100.00;93546.16;5078737;28;20024;-89
2022/12/09 00:37:29;;;;;;;34.70;14.43;;;;;;;7.16;100.00;93543.97;5078692;28;20072;-89
2022/12/09 00:39:54;;;;;;;31.73;13.65;;;;;;;7.43;100.00;93548.03;5078517;28;20017;-89
2022/12/09 00:42:19;;;;;;;26.27;12.80;;;;;;;7.12;100.00;93554.13;5078543;28;20033;-89
2022/12/09 00:44:45;;;;;;;25.42;12.55;;;;;;;6.84;100.00;93553.66;5062339;28;20114;-89
2022/12/09 00:47:10;;;;;;;32.15;14.02;;;;;;;6.57;100.00;93565.16;5079987;28;20028;-89
2022/12/09 00:49:36;;;;;;;25.05;11.75;;;;;;;7.01;100.00;93560.41;5079652;28;20021;-89
2022/12/09 00:52:01;;;;;;;176.23;18.20;;;;;;;6.39;100.00;93571.69;5077941;28;20078;-89
2022/12/09 00:54:27;;;;;;;25.00;12.68;;;;;;;6.80;100.00;93573.47;5077477;28;20025;-89
2022/12/09 00:56:52;;;;;;;23.33;11.77;;;;;;;6.92;100.00;93579.19;5078320;28;20029;-90
2022/12/09 00:59:17;;;;;;;26.08;12.43;;;;;;;7.19;100.00;93572.88;5076943;28;20055;-89
2022/12/09 01:01:43;;;;;;;23.73;11.23;;;;;;;7.36;100.00;93572.53;5077039;28;20024;-88
2022/12/09 01:04:08;;;;;;;25.75;11.48;;;;;;;7.45;100.00;93561.59;5077124;28;20020;-88
2022/12/09 01:06:34;;;;;;;19.45;10.13;;;;;;;7.46;100.00;93553.50;5060791;28;20027;-90
2022/12/09 01:09:00;;;;;;;573.00;29.58;;;;;;;6.89;100.00;93563.31;5076647;28;20028;-89
2022/12/09 01:11:27;;;;;;;30.08;8.77;;;;;;;7.05;100.00;93567.44;5077098;28;20119;-88
2022/12/09 01:13:56;;;;;;;212.38;16.63;;;;;;;7.15;100.00;93564.00;5076974;28;20078;-90
2022/12/09 01:16:24;;;;;;;512.08;30.65;;;;;;;6.36;100.00;93554.75;5060428;28;20032;-88
2022/12/09 01:18:51;;;;;;;16.23;9.18;;;;;;;7.00;100.00;93561.44;5077132;28;20035;-89
2022/12/09 01:21:17;;;;;;;53.15;10.65;;;;;;;6.87;100.00;93550.53;5078167;28;20020;-89
2022/12/09 01:23:43;;;;;;;250.48;18.75;;;;;;;6.59;100.00;93555.25;5059945;28;20070;-89
2022/12/09 01:26:09;;;;;;;144.52;14.73;;;;;;;6.48;100.00;93548.53;5076769;28;20107;-88
2022/12/09 01:28:39;;;;;;;19.23;10.85;;;;;;;7.19;100.00;93546.03;5077019;28;20166;-88
2022/12/09 01:31:13;;;;;;;22.05;10.25;;;;;;;7.06;100.00;93531.75;5076742;28;20036;-89
2022/12/09 01:33:39;;;;;;;255.00;17.88;;;;;;;6.69;100.00;93532.88;5076610;28;20031;-88
2022/12/09 01:36:11;;;;;;;19.80;9.55;;;;;;;7.05;100.00;93530.97;5060090;28;20032;-89
2022/12/09 01:38:37;;;;;;;19.10;10.48;;;;;;;7.24;100.00;93516.59;5076869;28;20024;-89
2022/12/09 01:41:02;;;;;;;917.97;42.72;;;;;;;6.40;100.00;93494.38;5077583;28;20034;-88
2022/12/09 01:43:28;;;;;;;1022.25;48.95;;;;;;;6.76;100.00;93495.09;5077017;28;20028;-88
2022/12/09 01:45:54;;;;;;;1582.30;82.60;;;;;;;6.31;100.00;93507.94;5077539;28;20028;-90
2022/12/09 01:48:27;;;;;;;881.80;49.78;;;;;;;5.97;100.00;93508.41;5076117;28;20060;-89
2022/12/09 01:50:55;;;;;;;21.05;11.55;;;;;;;6.61;100.00;93493.34;5076254;28;20037;-88
2022/12/09 01:53:24;;;;;;;1355.03;67.63;;;;;;;6.07;100.00;93492.84;5033383;28;1298351;-89
2022/12/09 01:55:50;;;;;;;92.88;13.45;;;;;;;6.61;100.00;93482.91;5077282;28;20033;-89
2022/12/09 01:58:15;;;;;;;526.33;31.40;;;;;;;5.87;100.00;93485.00;5060623;28;20097;-88
2022/12/09 02:00:41;;;;;;;56.03;12.40;;;;;;;6.48;100.00;93491.28;5076756;28;20047;-89
2022/12/09 02:03:07;;;;;;;336.52;23.10;;;;;;;6.22;100.00;93496.50;5077069;28;20033;-88
2022/12/09 02:05:33;;;;;;;330.77;22.00;;;;;;;6.62;100.00;93487.09;5077030;28;20040;-88
2022/12/09 02:07:58;;;;;;;133.75;14.60;;;;;;;6.35;100.00;93498.56;5076998;28;20036;-88
2022/12/09 02:10:24;;;;;;;185.88;17.20;;;;;;;6.48;100.00;93496.47;5076215;28;20035;-88
2022/12/09 02:13:01;;;;;;;19.27;10.27;;;;;;;6.51;100.00;93499.31;5077197;28;20047;-89
2022/12/09 02:15:34;;;;;;;16.58;9.50;;;;;;;6.95;100.00;93501.56;5078012;28;20040;-88
2022/12/09 02:18:01;;;;;;;15.02;9.00;;;;;;;6.55;100.00;93491.75;5060287;28;20032;-88
2022/12/09 02:21:05;;;;;;;17.67;9.73;;;;;;;6.38;100.00;93481.63;5076471;28;20094;-89
2022/12/09 02:23:38;;;;;;;213.35;16.08;;;;;;;6.35;100.00;93462.13;5077566;28;20035;-88
2022/12/09 02:26:15;;;;;;;43.63;9.93;;;;;;;6.85;100.00;93458.13;5077541;28;20056;-88
2022/12/09 02:28:59;;;;;;;137.85;13.55;;;;;;;6.73;100.00;93458.41;5076497;28;20032;-88
2022/12/09 02:31:40;;;;;;;541.50;28.42;;;;;;;6.87;100.00;93456.78;5076299;28;20032;-88
2022/12/09 02:34:20;;;;;;;376.33;22.83;;;;;;;6.95;100.00;93442.44;5077379;28;20326;-88
2022/12/09 02:37:05;;;;;;;279.17;17.80;;;;;;;6.22;100.00;93445.22;5059762;28;20032;-88
2022/12/09 02:39:53;;;;;;;49.50;10.80;;;;;;;6.24;100.00;93437.19;5076947;28;20358;-89
2022/12/09 02:42:21;;;;;;;31.58;11.75;;;;;;;6.30;100.00;93433.50;5076394;28;20441;-88
2022/12/09 02:44:48;;;;;;;17.92;10.23;;;;;;;6.73;100.00;93414.16;5077471;28;20039;-89
2022/12/09 02:47:15;;;;;;;17.85;9.75;;;;;;;6.97;100.00;93418.75;5076251;28;20350;-88
2022/12/09 02:49:41;;;;;;;77.65;11.23;;;;;;;6.99;100.00;93421.88;5075976;28;20037;-89
2022/12/09 02:52:08;;;;;;;121.13;13.85;;;;;;;6.06;100.00;93435.88;5075970;28;20079;-89
2022/12/09 02:54:35;;;;;;;39.80;10.23;;;;;;;6.05;100.00;93427.31;5076184;28;20107;-89
2022/12/09 02:57:06;;;;;;;66.05;13.32;;;;;;;5.93;100.00;93427.53;5075099;28;20032;-89
2022/12/09 02:59:32;;;;;;;15.77;9.50;;;;;;;6.44;100.00;93412.16;5075664;28;20069;-89
2022/12/09 03:02:20;;;;;;;15.30;8.50;;;;;;;6.89;100.00;93418.28;5062638;28;20028;-89
2022/12/09 03:05:24;;;;;;;685.50;39.38;;;;;;;5.61;100.00;93418.19;5073696;28;20440;-89
2022/12/09 03:08:13;;;;;;;137.55;16.92;;;;;;;6.15;100.00;93404.94;5066261;28;20032;-90
2022/12/09 03:10:56;;;;;;;83.95;12.43;;;;;;;6.48;100.00;93387.19;5055393;28;20036;-89
2022/12/09 03:13:31;;;;;;;554.70;33.40;;;;;;;6.61;100.00;93384.00;5056134;28;20024;-89
2022/12/09 03:16:05;;;;;;;74.25;15.27;;;;;;;6.63;100.00;93381.91;5056983;28;20028;-90
2022/12/09 03:18:32;;;;;;;1540.43;90.45;;;;;;;5.64;100.00;93375.31;5055537;28;20430;-89
2022/12/09 03:20:57;;;;;;;755.85;44.00;;;;;;;5.55;100.00;93382.84;5057388;28;20033;-89
2022/12/09 03:23:25;;;;;;;343.90;26.33;;;;;;;5.99;100.00;93380.75;5076939;28;20031;-89
2022/12/09 03:25:51;;;;;;;494.67;32.28;;;;;;;5.91;100.00;93380.22;5075637;28;20025;-90
2022/12/09 03:28:41;;;;;;;463.38;36.58;;;;;;;5.80;100.00;93373.47;5076650;28;20085;-89
2022/12/09 03:31:11;;;;;;;78.32;15.07;;;;;;;5.73;100.00;93363.34;5075559;28;20028;-91
2022/12/09 03:33:36;;;;;;;634.08;35.33;;;;;;;5.94;100.00;93368.53;5076532;28;20086;-89
2022/12/09 03:36:05;;;;;;;183.43;21.05;;;;;;;6.18;100.00;93368.00;5075621;28;20032;-90
2022/12/09 03:38:34;;;;;;;327.95;25.42;;;;;;;5.84;100.00;93371.94;5076549;28;20024;-89
2022/12/09 03:41:06;;;;;;;291.77;23.25;;;;;;;5.82;100.00;93373.22;5075525;28;20099;-89
2022/12/09 03:43:40;;;;;;;45.30;15.95;;;;;;;6.39;100.00;93367.94;5075851;28;20024;-88
2022/12/09 03:46:05;;;;;;;204.95;17.33;;;;;;;6.24;100.00;93369.53;5076754;28;20028;-89
2022/12/09 03:48:32;;;;;;;210.10;20.88;;;;;;;6.28;100.00;93362.75;5075468;28;20491;-90
2022/12/09 03:51:08;;;;;;;578.50;34.47;;;;;;;6.05;100.00;93354.50;5076183;28;20085;-89
2022/12/09 03:53:43;;;;;;;645.28;36.67;;;;;;;6.20;100.00;93338.06;5076863;28;20028;-89
2022/12/09 03:56:20;;;;;;;166.30;18.40;;;;;;;6.50;100.00;93348.66;5075491;28;20346;-89
2022/12/09 03:58:48;;;;;;;629.40;37.50;;;;;;;6.50;100.00;93338.25;5076652;28;20089;-89
2022/12/09 04:01:13;;;;;;;888.85;52.47;;;;;;;5.60;100.00;93332.72;5075187;28;20024;-90
2022/12/09 04:03:39;;;;;;;33.55;14.55;;;;;;;6.37;100.00;93326.56;5075099;28;20020;-89
2022/12/09 04:06:04;;;;;;;57.83;14.80;;;;;;;6.63;100.00;93323.88;5076481;28;20074;-91
2022/12/09 04:08:30;;;;;;;122.35;17.40;;;;;;;6.56;100.00;93326.00;5076191;28;20024;-89
2022/12/09 04:10:55;;;;;;;32.85;13.93;;;;;;;6.14;100.00;93320.16;5076266;28;20078;-89
2022/12/09 04:13:21;;;;;;;200.30;19.83;;;;;;;5.74;100.00;93309.56;5075193;28;20398;-89
2022/12/09 04:15:46;;;;;;;24.73;12.70;;;;;;;6.39;100.00;93292.50;5076693;28;20510;-89
2022/12/09 04:18:12;;;;;;;708.13;37.40;;;;;;;6.02;100.00;93286.66;5075044;28;20081;-90
2022/12/09 04:20:37;;;;;;;31.52;13.25;;;;;;;6.25;100.00;93300.09;5076290;28;20429;-89
2022/12/09 04:23:02;;;;;;;177.75;19.02;;;;;;;6.27;100.00;93298.00;5076317;28;20024;-89
2022/12/09 04:25:28;;;;;;;824.80;48.63;;;;;;;5.67;100.00;93286.44;5076218;28;20089;-89
2022/12/09 04:27:53;;;;;;;777.78;48.10;;;;;;;5.37;100.00;93285.44;5075153;28;20093;-90
2022/12/09 04:30:19;;;;;;;125.15;15.88;;;;;;;5.59;100.00;93268.75;5076106;28;20036;-89
2022/12/09 04:32:44;;;;;;;31.63;15.43;;;;;;;5.64;100.00;93256.53;5076533;28;20056;-90
2022/12/09 04:35:10;;;;;;;205.40;20.02;;;;;;;6.10;100.00;93269.72;5079489;28;20422;-90
2022/12/09 04:37:36;;;;;;;83.70;16.63;;;;;;;5.86;100.00;93263.25;5071998;28;20349;-89
2022/12/09 04:40:03;;;;;;;45.83;14.55;;;;;;;6.38;100.00;93278.69;5064904;28;20322;-90
2022/12/09 04:42:29;;;;;;;101.28;17.08;;;;;;;6.16;100.00;93276.44;5069365;28;20029;-90
2022/12/09 04:44:54;;;;;;;123.57;18.30;;;;;;;6.15;100.00;93272.28;5059710;28;20319;-90
2022/12/09 04:47:20;;;;;;;263.33;24.65;;;;;;;5.63;100.00;93267.97;5059308;28;20024;-90
2022/12/09 04:49:48;;;;;;;542.22;34.65;;;;;;;5.63;100.00;93262.03;5059441;28;20102;-90
2022/12/09 04:52:19;;;;;;;769.00;45.90;;;;;;;5.70;100.00;93259.16;5057971;28;20468;-89
2022/12/09 04:54:51;;;;;;;202.68;22.75;;;;;;;6.06;100.00;93267.66;5059527;28;20036;-89
2022/12/09 04:57:17;;;;;;;454.63;30.60;;;;;;;5.99;100.00;93261.91;5058406;28;20037;-87
2022/12/09 04:59:43;;;;;;;549.42;33.13;;;;;;;5.91;100.00;93249.47;5058299;28;20350;-88
2022/12/09 05:02:08;;;;;;;30.80;16.15;;;;;;;6.04;100.00;93248.94;5059503;28;20409;-89
2022/12/09 05:04:34;;;;;;;109.90;17.60;;;;;;;6.37;100.00;93251.13;5058112;28;20028;-89
2022/12/09 05:06:59;;;;;;;33.13;15.13;;;;;;;6.44;100.00;93243.03;5059201;28;20166;-89
2022/12/09 05:09:25;;;;;;;64.88;15.40;;;;;;;6.50;100.00;93242.72;5059176;28;20024;-89
2022/12/09 05:11:51;;;;;;;525.88;31.35;;;;;;;6.34;100.00;93247.25;5057948;28;20024;-89
2022/12/09 05:14:16;;;;;;;952.17;48.10;;;;;;;5.73;100.00;93243.78;5058035;28;20504;-90
2022/12/09 05:16:42;;;;;;;768.50;44.63;;;;;;;5.49;100.00;93238.38;5058829;28;20218;-88
2022/12/09 05:19:07;;;;;;;454.05;31.42;;;;;;;6.07;100.00;93245.81;5058159;28;20039;-89
2022/12/09 05:21:33;;;;;;;796.55;47.65;;;;;;;5.50;100.00;93225.16;5057944;28;20025;-89
2022/12/09 05:24:01;;;;;;;212.63;24.67;;;;;;;5.40;100.00;93235.53;5057735;28;20032;-89
2022/12/09 05:26:26;;;;;;;221.15;22.15;;;;;;;5.30;100.00;93212.97;5058944;28;20435;-89
2022/12/09 05:28:52;;;;;;;36.20;16.63;;;;;;;5.97;100.00;93219.03;5057697;28;20061;-89
2022/12/09 05:31:19;;;;;;;359.33;26.45;;;;;;;5.99;100.00;93215.09;5057502;28;20052;-88
2022/12/09 05:33:45;;;;;;;249.00;23.13;;;;;;;5.91;100.00;93215.69;5057565;28;20056;-88
2022/12/09 05:36:12;;;;;;;650.15;41.10;;;;;;;5.53;100.00;93223.84;5057866;28;20082;-89
2022/12/09 05:38:38;;;;;;;645.55;40.17;;;;;;;5.50;100.00;93217.34;5057426;28;20028;-89
2022/12/09 05:41:04;;;;;;;331.58;26.30;;;;;;;5.65;100.00;93226.16;5057392;28;20023;-88
2022/12/09 05:43:30;;;;;;;839.97;46.08;;;;;;;5.80;100.00;93218.31;5057759;28;20386;-87
2022/12/09 05:45:56;;;;;;;344.38;23.95;;;;;;;5.96;100.00;93204.50;5056390;28;20459;-88
2022/12/09 05:48:21;;;;;;;29.38;14.25;;;;;;;5.97;100.00;93217.19;5058828;28;20029;-87
2022/12/09 05:51:02;;;;;;;29.63;14.98;;;;;;;6.22;100.00;93207.78;5056990;28;20123;-89
2022/12/09 05:53:28;;;;;;;28.27;14.10;;;;;;;6.22;100.00;93205.94;5056918;28;20453;-88
2022/12/09 05:55:53;;;;;;;58.03;14.50;;;;;;;6.56;100.00;93201.84;5057197;28;20029;-89
2022/12/09 05:58:19;;;;;;;24.58;13.40;;;;;;;6.70;100.00;93191.63;5057047;28;20074;-90
2022/12/09 06:00:44;;;;;;;56.85;13.48;;;;;;;6.72;100.00;93180.91;5064303;28;20104;-90
2022/12/09 06:03:10;;;;;;;35.47;12.13;;;;;;;6.78;100.00;93185.81;5077888;28;20438;-90
2022/12/09 06:05:36;;;;;;;108.60;14.48;;;;;;;6.48;100.00;93176.41;5077918;28;20047;-90
2022/12/09 06:08:02;;;;;;;227.30;16.08;;;;;;;6.57;100.00;93168.81;5076611;28;20028;-90
2022/12/09 06:10:28;;;;;;;35.40;11.18;;;;;;;6.68;100.00;93174.72;5076688;28;20035;-90
2022/12/09 06:12:54;;;;;;;277.77;20.80;;;;;;;6.20;100.00;93170.84;5076614;28;20338;-91
2022/12/09 06:15:20;;;;;;;208.25;18.65;;;;;;;5.69;100.00;93172.59;5076632;28;20384;-91
2022/12/09 06:17:45;;;;;;;196.88;17.17;;;;;;;5.92;100.00;93183.44;5076749;28;20039;-90
2022/12/09 06:20:11;;;;;;;223.52;19.27;;;;;;;6.04;100.00;93176.13;5077751;28;20035;-90
2022/12/09 06:22:36;;;;;;;32.20;12.35;;;;;;;6.28;100.00;93170.25;5077902;28;20056;-90
2022/12/09 06:25:02;;;;;;;71.32;13.55;;;;;;;6.42;100.00;93165.25;5077557;28;20028;-90
2022/12/09 06:27:27;;;;;;;153.10;15.00;;;;;;;5.73;100.00;93186.59;5076289;28;20024;-91
2022/12/09 06:29:53;;;;;;;34.83;10.85;;;;;;;5.91;100.00;93187.84;5077274;28;20107;-92
2022/12/09 06:32:21;;;;;;;21.67;11.40;;;;;;;5.80;100.00;93202.72;5076284;28;20376;-91
2022/12/09 06:34:46;;;;;;;19.65;10.05;;;;;;;5.74;100.00;93193.38;5077373;28;20028;-91
2022/12/09 06:37:14;;;;;;;16.63;9.48;;;;;;;5.98;100.00;93199.78;5077563;28;20043;-91
2022/12/09 06:39:40;;;;;;;58.55;12.18;;;;;;;5.39;100.00;93187.22;5076268;28;20035;-92
2022/12/09 06:42:05;;;;;;;189.68;17.92;;;;;;;5.80;100.00;93181.91;5076096;28;20358;-92
2022/12/09 06:44:31;;;;;;;38.20;12.35;;;;;;;5.98;100.00;93161.56;5075998;28;20052;-92
2022/12/09 06:46:57;;;;;;;518.28;29.65;;;;;;;5.49;100.00;93157.84;5077112;28;20082;-91
2022/12/09 06:49:23;;;;;;;456.20;29.27;;;;;;;5.72;100.00;93168.69;5075829;28;20349;-91
2022/12/09 06:51:48;;;;;;;659.20;39.55;;;;;;;5.82;100.00;93157.47;5076830;28;20446;-91
2022/12/09 06:54:14;;;;;;;51.60;10.73;;;;;;;6.18;100.00;93144.34;5077106;28;20074;-92
2022/12/09 06:56:39;;;;;;;216.25;16.58;;;;;;;6.21;100.00;93133.38;5075561;28;20327;-92
2022/12/09 06:59:06;;;;;;;13.93;8.63;;;;;;;6.46;100.00;93129.84;5077339;28;20060;-91
2022/12/09 07:01:32;;;;;;;726.90;42.70;;;;;;;6.01;100.00;93131.66;5075913;28;20024;-92
2022/12/09 07:03:57;;;;;;;46.50;10.52;;;;;;;6.23;100.00;93136.50;5076875;28;20028;-92
2022/12/09 07:06:33;;;;;;;999.63;47.83;;;;;;;5.36;100.00;93133.22;5076935;28;20126;-92
2022/12/09 07:09:07;;;;;;;163.48;13.68;;;;;;;5.95;100.00;93133.50;5075909;28;20029;-91
2022/12/09 07:11:33;;;;;;;108.30;12.00;;;;;;;6.13;100.00;93121.75;5059463;28;20032;-91
2022/12/09 07:13:59;;;;;;;13.55;8.00;;;;;;;6.36;100.00;93127.28;5075898;28;20078;-91
2022/12/09 07:16:25;;;;;;;387.35;23.05;;;;;;;6.06;100.00;93100.44;5059182;28;20504;-91
2022/12/09 07:18:50;;;;;;;13.55;7.90;;;;;;;6.13;100.00;93105.34;5075839;28;20108;-91
2022/12/09 07:21:20;;;;;;;13.10;7.63;;;;;;;6.12;100.00;93120.19;5059006;28;20024;-91
2022/12/09 07:23:46;;;;;;;11.88;6.68;;;;;;;5.89;100.00;93132.75;5075874;28;20029;-91
2022/12/09 07:26:13;;;;;;;10.48;5.97;;;;;;;6.14;100.00;93128.50;5059201;28;20031;-90
2022/12/09 07:28:41;;;;;;;27.02;7.38;;;;;;;6.48;100.00;93129.56;5047798;28;20028;-90
2022/12/09 07:31:15;;;;;;;40.53;8.35;;;;;;;6.26;100.00;93120.34;5038804;28;20063;-89
2022/12/09 07:33:40;;;;;;;15.70;8.05;;;;;;;5.82;100.00;93110.69;5055596;28;20067;-91
2022/12/09 07:36:06;;;;;;;337.98;19.92;;;;;;;6.18;100.00;93105.31;5055274;28;20033;-91
2022/12/09 07:38:31;;;;;;;62.60;10.07;;;;;;;6.36;100.00;93099.47;5055261;28;20442;-89
2022/12/09 07:41:04;;;;;;;15.23;8.00;;;;;;;6.73;100.00;93099.97;5038991;28;20052;-90
2022/12/09 07:43:32;;;;;;;36.10;9.00;;;;;;;6.01;100.00;93097.84;5055273;28;20029;-89
2022/12/09 07:45:57;;;;;;;17.33;7.25;;;;;;;6.16;100.00;93102.19;5055582;28;20025;-90
2022/12/09 07:48:22;;;;;;;285.85;18.73;;;;;;;6.43;100.00;93070.53;5039069;28;20339;-88
2022/12/09 07:50:48;;;;;;;972.60;54.60;;;;;;;6.23;100.00;93071.47;5055155;28;20029;-89
2022/12/09 07:53:13;;;;;;;857.05;45.33;;;;;;;6.01;100.00;93077.84;5055877;28;20141;-90
2022/12/09 07:55:39;;;;;;;688.58;34.88;;;;;;;5.71;100.00;93063.19;5055491;28;20128;-90
2022/12/09 07:58:04;;;;;;;198.05;15.88;;;;;;;5.91;100.00;93077.91;5056235;28;20423;-90
2022/12/09 08:00:29;;;;;;;723.92;38.47;;;;;;;5.89;100.00;93075.56;5038522;28;20021;-89
2022/12/09 08:02:55;;;;;;;127.43;13.73;;;;;;;6.12;100.00;93067.38;5055347;28;20064;-90
2022/12/09 08:05:20;;;;;;;94.43;12.02;;;;;;;6.10;100.00;93062.47;5038539;28;20040;-90
2022/12/09 08:07:46;;;;;;;87.63;11.57;;;;;;;6.26;100.00;93050.13;5055579;28;20037;-89
2022/12/09 08:10:11;;;;;;;15.75;9.45;;;;;;;6.17;100.00;93062.13;5059507;28;20029;-89
2022/12/09 08:12:37;;;;;;;16.75;9.57;;;;;;;6.13;100.00;93035.13;5059634;28;20330;-89
2022/12/09 08:15:02;;;;;;;18.17;9.48;;;;;;;5.89;100.00;93033.97;5042683;28;20035;-88
2022/12/09 08:17:29;;;;;;;83.03;11.80;;;;;;;5.93;100.00;93042.75;5060475;28;20035;-90
2022/12/09 08:19:55;;;;;;;551.92;32.60;;;;;;;5.96;100.00;93033.66;5058715;28;20024;-90
2022/12/09 08:22:20;;;;;;;498.33;31.40;;;;;;;6.01;100.00;93025.84;5059840;28;20048;-89
2022/12/09 08:24:46;;;;;;;1204.43;63.83;;;;;;;5.72;100.00;93059.53;5060397;28;20040;-89
2022/12/09 08:27:11;;;;;;;893.00;46.45;;;;;;;5.84;100.00;92995.03;5060029;28;20032;-89
2022/12/09 08:29:36;;;;;;;123.70;12.68;;;;;;;5.83;100.00;93009.06;5059982;28;20035;-89
2022/12/09 08:32:02;;;;;;;404.85;24.67;;;;;;;5.34;100.00;92992.47;5060191;28;20350;-89
2022/12/09 08:34:27;;;;;;;139.60;16.23;;;;;;;5.41;100.00;93033.72;5042283;28;20128;-87
2022/12/09 08:36:55;;;;;;;51.13;12.20;;;;;;;5.84;100.00;93030.63;5059928;28;20422;-89
2022/12/09 08:39:21;;;;;;;18.80;10.32;;;;;;;5.50;100.00;93032.09;5058703;28;20029;-88
2022/12/09 08:41:46;;;;;;;125.90;13.43;;;;;;;6.06;100.00;93027.63;5059698;28;20088;-89
2022/12/09 08:44:19;;;;;;;14.80;8.55;;;;;;;6.32;100.00;93019.63;5058912;28;20039;-89
2022/12/09 08:46:48;;;;;;;18.50;9.77;;;;;;;5.92;100.00;93028.22;5058813;28;20029;-88
2022/12/09 08:49:19;;;;;;;15.52;9.15;;;;;;;6.23;100.00;93024.66;5058416;28;20508;-89
2022/12/09 08:51:46;;;;;;;29.10;10.32;;;;;;;6.02;100.00;93026.63;5042526;28;20031;-90
2022/12/09 08:54:12;;;;;;;18.75;9.40;;;;;;;6.15;100.00;93038.22;5058228;28;20116;-88
2022/12/09 08:56:37;;;;;;;208.48;15.07;;;;;;;5.92;100.00;93028.22;5059864;28;20052;-89
2022/12/09 08:59:03;;;;;;;381.88;21.73;;;;;;;6.39;100.00;93027.13;5058290;28;20035;-89
2022/12/09 09:01:33;;;;;;;14.68;8.63;;;;;;;7.02;100.00;93039.28;5058218;28;20029;-89
2022/12/09 09:04:10;;;;;;;13.68;7.65;;;;;;;6.83;100.00;93030.63;5058590;28;20049;-88
2022/12/09 09:06:38;;;;;;;11.07;6.78;;;;;;;6.53;100.00;93025.44;5041789;28;20389;-88
2022/12/09 09:09:05;;;;;;;11.95;7.50;;;;;;;7.46;100.00;93021.84;5058916;28;20439;-89
2022/12/09 09:11:41;;;;;;;10.50;6.53;;;;;;;8.20;100.00;93027.59;5058047;28;20025;-89
2022/12/09 09:14:08;;;;;;;9.23;5.43;;;;;;;8.23;100.00;93024.41;5058055;28;20021;-88
2022/12/09 09:16:34;;;;;;;85.15;8.68;;;;;;;7.21;100.00;93030.72;5057959;28;20307;-89
2022/12/09 09:22:21;;;;;;;130.13;11.35;;;;;;;7.08;100.00;93022.53;5058797;28;20087;-88
2022/12/09 09:24:47;;;;;;;15.48;7.50;;;;;;;7.19;100.00;93023.22;5058999;28;20379;-89
2022/12/09 09:27:12;;;;;;;891.42;43.10;;;;;;;6.45;100.00;93013.00;5059296;28;20331;-88
2022/12/09 09:29:37;;;;;;;12.15;6.43;;;;;;;7.16;100.00;93012.56;5058850;28;20029;-88
2022/12/09 09:32:03;;;;;;;12.50;6.45;;;;;;;7.47;100.00;93007.75;5058727;28;20036;-88
2022/12/09 09:34:28;;;;;;;11.55;6.80;;;;;;;7.20;100.00;92993.50;5057919;28;20091;-88
2022/12/09 09:36:55;;;;;;;10.30;6.40;;;;;;;7.44;100.00;93000.47;5058776;28;20075;-89
2022/12/09 09:39:21;;;;;;;30.17;7.60;;;;;;;7.63;100.00;92986.69;5057863;28;20103;-89
2022/12/09 09:41:55;;;;;;;11.55;6.03;;;;;;;7.54;100.00;92999.59;5057379;28;20414;-89
2022/12/09 09:44:20;;;;;;;12.63;6.47;;;;;;;7.42;100.00;92992.16;5057798;28;20067;-88
2022/12/09 09:46:47;;;;;;;13.40;7.28;;;;;;;7.40;100.00;92983.09;5058610;28;20064;-89
2022/12/09 09:49:34;;;;;;;66.47;8.85;;;;;;;7.48;100.00;92983.25;5057081;28;20056;-88
2022/12/09 09:52:05;;;;;;;9.48;5.85;;;;;;;7.46;100.00;92993.19;5058592;28;20446;-89
2022/12/09 09:54:31;;;;;;;12.50;6.45;;;;;;;7.56;100.00;92999.28;5057606;28;20025;-89
2022/12/09 09:57:02;;;;;;;392.83;23.10;;;;;;;7.40;100.00;92976.03;5057258;28;20021;-89
2022/12/09 09:59:38;;;;;;;95.00;10.73;;;;;;;7.92;100.00;92983.16;5057278;28;20028;-89
2022/12/09 10:02:09;;;;;;;18.15;8.55;;;;;;;7.04;100.00;92986.94;5058072;28;20048;-88
2022/12/09 10:04:44;;;;;;;19.80;8.10;;;;;;;7.71;100.00;92983.44;5058315;28;20199;-89
2022/12/09 10:07:21;;;;;;;11.02;6.15;;;;;;;7.54;100.00;93009.22;5057952;28;20079;-88
2022/12/09 10:10:11;;;;;;;8.52;4.97;;;;;;;7.67;100.00;92992.09;5056856;28;20037;-88
2022/12/09 10:13:04;;;;;;;8.48;4.65;;;;;;;7.65;100.00;93013.25;5040583;28;20028;-89
2022/12/09 10:15:34;;;;;;;6.65;3.88;;;;;;;7.61;100.00;92994.78;5056859;28;20086;-89
2022/12/09 10:18:24;;;;;;;9.60;4.32;;;;;;;7.49;100.00;93003.03;5056855;28;20029;-88
2022/12/09 10:20:50;;;;;;;8.07;4.22;;;;;;;7.00;100.00;93015.34;5057611;28;20094;-89
2022/12/09 10:23:16;;;;;;;6.88;4.07;;;;;;;7.01;100.00;93016.91;5057932;28;20059;-88
2022/12/09 10:25:52;;;;;;;8.60;3.47;;;;;;;6.93;100.00;92999.25;5056984;28;20053;-89
2022/12/09 10:28:22;;;;;;;9.70;4.80;;;;;;;7.15;100.00;92998.75;5056342;28;20112;-89
2022/12/09 10:30:54;;;;;;;13.18;6.07;;;;;;;6.61;100.00;93011.06;5057192;28;20029;-89
2022/12/09 10:33:31;;;;;;;11.50;6.13;;;;;;;6.67;100.00;92993.56;5039994;28;20443;-89
2022/12/09 10:35:57;;;;;;;11.38;6.00;;;;;;;7.04;100.00;92995.50;5056545;28;20070;-89
2022/12/09 10:38:37;;;;;;;13.20;6.50;;;;;;;6.49;100.00;92991.38;5056488;28;20115;-89
2022/12/09 10:41:15;;;;;;;13.30;6.07;;;;;;;7.30;100.00;92997.00;5056273;28;20021;-88
2022/12/09 10:43:42;;;;;;;12.68;6.88;;;;;;;6.84;100.00;92996.50;5057273;28;20025;-88
2022/12/09 10:46:10;;;;;;;9.68;5.63;;;;;;;6.87;100.00;92982.91;5056373;28;20059;-89
2022/12/09 10:48:39;;;;;;;9.65;5.40;;;;;;;7.35;100.00;92982.09;5057471;28;20025;-88
2022/12/09 10:51:12;;;;;;;14.32;6.00;;;;;;;6.43;100.00;92987.28;5056979;28;20040;-89
2022/12/09 10:53:44;;;;;;;8.45;5.15;;;;;;;6.48;100.00;92968.25;5055832;28;20029;-88
2022/12/09 10:56:17;;;;;;;8.60;4.88;;;;;;;6.87;100.00;92959.50;5057158;28;20341;-90
2022/12/09 10:58:42;;;;;;;;;;;;;;;6.74;100.00;92967.97;5056616;28;20083;-89
2022/12/09 11:01:10;;;;;;;7.03;4.38;;;;;;;6.85;100.00;92963.44;5057527;28;19963;-88
2022/12/09 11:03:53;;;;;;;7.13;4.28;;;;;;;6.28;100.00;92930.19;5055973;28;20039;-88
2022/12/09 11:06:28;;;;;;;6.75;4.03;;;;;;;6.43;100.00;92929.25;5063711;28;20024;-89
2022/12/09 11:08:55;;;;;;;8.82;4.53;;;;;;;6.50;100.00;92929.72;5057073;28;20028;-89
2022/12/09 11:11:57;;;;;;;8.00;4.07;;;;;;;6.76;100.00;92937.25;5064832;28;20025;-88
2022/12/09 11:14:34;;;;;;;5.95;4.07;;;;;;;6.87;100.00;92933.47;5016182;28;20061;-89
2022/12/09 11:17:23;;;;;;;7.05;4.78;;;;;;;6.73;100.00;92924.78;5068327;28;20036;-88
2022/12/09 11:20:13;;;;;;;7.90;4.35;;;;;;;6.87;100.00;92906.66;5075672;28;20111;-89
2022/12/09 11:22:40;;;;;;;5.90;3.88;;;;;;;7.21;100.00;92903.88;5076346;28;20040;-87
2022/12/09 11:25:12;;;;;;;7.45;4.70;;;;;;;6.69;100.00;92902.97;5077228;28;20032;-88
2022/12/09 11:27:47;;;;;;;6.05;4.40;;;;;;;7.06;100.00;92904.84;5076937;28;20115;-90